LEGE - Información del aeropuerto


Mapa

Información de pistas
Pista 02 Longitud 7874 ft Anchura 148 ft
Elevación 403 ft Threshold 0 ft Heading 16
Pista 20 Longitud 7874 ft Anchura 148 ft
Elevación 468 ft Threshold 0 ft Heading 196
Frecuencias del aeropuerto
Tipo APP Nombre APP Frecuencia 120.9 MHZ
Tipo GND Nombre GND Frecuencia 121.7 MHZ
Tipo TWR Nombre TWR Frecuencia 118.5 MHZ
Radio-ayudas del aeropuerto
Tipo VOR-DME Nombre Gerona Frecuencia 114100 KHZ
Tipo NDB Nombre Gerona Frecuencia 412 KHZ
Información meteorología y NOTAM del aeropuerto
ADDS - METARS form results

(0023 UTC 24 October 2019)
Data provider http://aviationweather.gov/metar/data/
 
METAR text: LEGE 240000Z VRB02KT 9999 FEW060 10/09 Q1010
Conditions at: LEGE (GERONA/COSTA BRA, ES) observed 0000 UTC 24 October 2019
Temperature: 10.0°C (50°F)
Dewpoint: 9.0°C (48°F) [RH = 93%]
Pressure (altimeter): 29.82 inches Hg (1010.0 mb)
Winds: variable direction winds at 2 MPH (2 knots; 1.0 m/s)
Visibility: 6 or more miles (10+ km)
Ceiling: at least 12,000 feet AGL
Clouds: few clouds at 6000 feet AGL
Weather: no significant weather observed at this time

METAR text: LEGE 232330Z 00000KT 9999 FEW060 10/09 Q1010
Conditions at: LEGE (GERONA/COSTA BRA, ES) observed 2330 UTC 23 October 2019
Temperature: 10.0°C (50°F)
Dewpoint: 9.0°C (48°F) [RH = 93%]
Pressure (altimeter): 29.82 inches Hg (1010.0 mb)
Winds: calm
Visibility: 6 or more miles (10+ km)
Ceiling: at least 12,000 feet AGL
Clouds: few clouds at 6000 feet AGL
Weather: no significant weather observed at this time

Forecast for: LEGE (GERONA/COSTA BRA, ES)
Text: TAF LEGE 232300Z 2400/2424 VRB04KT 9999 FEW060 TX22/2413Z TN10/2406Z
Forecast period: 0000 to 1000 UTC 24 October 2019
Forecast type: FROM: standard forecast or significant change
Winds: variable direction winds at 5 MPH (4 knots; 2.1 m/s)
Visibility: 6 or more miles 10+ km)
Ceiling: at least 12,000 feet AGL
Clouds: few clouds at 6000 feet AGL
Weather: no significant weather forecast for this period
Text: PROB40
Forecast period: 0000 to 0600 UTC 24 October 2019
Forecast type: TEMPORARY: The following changes expected for less than half the time period
Visibility: 2.49 miles (4.01 km)
Ceiling: 500 feet AGL
Clouds: broken clouds at 500 feet AGL
Weather: BR  (mist)
Text: TEMPO 2400/2406 4000 BR BKN005
Forecast period: 1000 UTC 24 October 2019 to 0000 UTC 25 October 2019
Forecast type: BECOMING: Conditions expected to become as follows by 1200 UTC 24 October 2019
Winds: from the NNE (30 degrees) at 12 MPH (10 knots; 5.1 m/s)
Visibility: 6 or more miles 10+ km)
Ceiling: at least 12,000 feet AGL
Clouds: few clouds at 6000 feet AGL
Weather: no significant weather forecast for this period